createdAt,value
2023-03-01T00:00:38.378Z,99.99
2023-03-01T00:01:38.236Z,99.99
2023-03-01T00:02:38.252Z,99.99
2023-03-01T00:03:38.452Z,99.99
2023-03-01T00:04:38.222Z,99.99
2023-03-01T00:05:38.194Z,99.99
2023-03-01T00:06:38.198Z,99.99
2023-03-01T00:07:38.164Z,99.99
2023-03-01T00:08:38.183Z,99.99
2023-03-01T00:09:38.160Z,99.99
2023-03-01T00:10:38.185Z,99.99
2023-03-01T00:11:38.158Z,99.99
2023-03-01T00:12:38.103Z,99.99
2023-03-01T00:13:38.166Z,99.99
2023-03-01T00:14:38.094Z,99.99
2023-03-01T00:15:38.094Z,99.99
2023-03-01T00:16:38.127Z,99.99
2023-03-01T00:17:38.064Z,99.99
2023-03-01T00:18:38.074Z,99.99
2023-03-01T00:19:38.085Z,99.99
2023-03-01T00:20:38.028Z,99.99
2023-03-01T00:21:38.017Z,99.99
2023-03-01T00:22:38.005Z,99.99
2023-03-01T00:23:38.006Z,99.99
2023-03-01T00:24:38.006Z,99.99
2023-03-01T00:25:37.985Z,99.99
2023-03-01T00:26:37.986Z,99.99
2023-03-01T00:27:38.021Z,99.99
2023-03-01T00:28:37.994Z,99.99
2023-03-01T00:29:37.962Z,99.99
2023-03-01T00:30:38.213Z,99.99
2023-03-01T00:31:37.923Z,99.99
2023-03-01T00:32:37.917Z,99.99
2023-03-01T00:33:37.931Z,99.99
2023-03-01T00:34:37.890Z,99.99
2023-03-01T00:35:37.918Z,99.99
2023-03-01T00:36:37.913Z,99.99
2023-03-01T00:37:37.863Z,99.99
2023-03-01T00:38:37.890Z,99.99
2023-03-01T00:39:37.844Z,99.99
2023-03-01T00:40:37.818Z,99.99
2023-03-01T00:41:37.822Z,99.99
2023-03-01T00:42:37.831Z,99.99
2023-03-01T00:43:37.876Z,99.99
2023-03-01T00:44:37.801Z,99.99
2023-03-01T00:45:37.774Z,99.99
2023-03-01T00:46:37.829Z,99.99
2023-03-01T00:47:37.816Z,99.99
2023-03-01T00:48:37.822Z,99.99
2023-03-01T00:49:37.776Z,99.99
2023-03-01T00:50:37.725Z,99.99
2023-03-01T00:51:37.716Z,99.99
2023-03-01T00:52:37.721Z,99.99
2023-03-01T00:53:37.734Z,99.99
2023-03-01T00:54:37.704Z,99.99
2023-03-01T00:55:37.692Z,99.99
2023-03-01T00:56:37.662Z,99.99
2023-03-01T00:57:37.702Z,99.99
2023-03-01T00:58:37.659Z,99.99
2023-03-01T00:59:37.650Z,99.99
2023-03-01T01:00:37.619Z,99.99
2023-03-01T01:01:37.703Z,99.99
2023-03-01T01:02:37.647Z,99.99
2023-03-01T01:03:37.658Z,99.99
2023-03-01T01:04:37.593Z,99.99
2023-03-01T01:05:37.584Z,99.99
2023-03-01T01:06:37.554Z,99.99
2023-03-01T01:07:37.553Z,99.99
2023-03-01T01:08:37.646Z,99.99
2023-03-01T01:09:37.520Z,99.99
2023-03-01T01:10:37.521Z,99.99
2023-03-01T01:11:37.574Z,99.99
2023-03-01T01:12:37.515Z,99.99
2023-03-01T01:13:37.514Z,99.99
2023-03-01T01:14:37.484Z,99.99
2023-03-01T01:15:37.500Z,99.99
2023-03-01T01:16:37.455Z,99.99
2023-03-01T01:17:37.508Z,99.99
2023-03-01T01:18:37.468Z,99.99
2023-03-01T01:19:37.447Z,99.99
2023-03-01T01:20:37.454Z,99.99
2023-03-01T01:21:37.433Z,99.99
2023-03-01T01:22:37.414Z,99.99
2023-03-01T01:23:37.427Z,99.99
2023-03-01T01:24:37.383Z,99.99
2023-03-01T01:25:37.370Z,99.99
2023-03-01T01:26:37.354Z,99.99
2023-03-01T01:27:37.387Z,99.99
2023-03-01T01:28:37.356Z,99.99
2023-03-01T01:29:37.319Z,99.99
2023-03-01T01:30:37.325Z,99.99
2023-03-01T01:31:37.320Z,99.99
2023-03-01T01:32:37.314Z,99.99
2023-03-01T01:33:37.330Z,99.99
2023-03-01T01:34:37.317Z,99.99
2023-03-01T01:35:37.360Z,99.99
2023-03-01T01:36:37.259Z,99.99
2023-03-01T01:37:37.261Z,99.99
2023-03-01T01:38:37.270Z,99.99
2023-03-01T01:39:37.253Z,99.99
2023-03-01T01:40:37.225Z,99.99
2023-03-01T01:41:37.273Z,99.99
2023-03-01T01:42:37.204Z,99.99
2023-03-01T01:43:37.187Z,99.99
2023-03-01T01:44:37.236Z,99.99
2023-03-01T01:45:37.154Z,99.99
2023-03-01T01:46:37.225Z,99.99
2023-03-01T01:47:37.154Z,99.99
2023-03-01T01:48:37.169Z,99.99
2023-03-01T01:49:37.124Z,99.99
2023-03-01T01:50:37.119Z,99.99
2023-03-01T01:51:37.130Z,99.99
2023-03-01T01:52:37.115Z,99.99
2023-03-01T01:53:37.090Z,99.99
2023-03-01T01:54:37.099Z,99.99
2023-03-01T01:55:37.098Z,99.99
2023-03-01T01:56:37.048Z,99.99
2023-03-01T01:57:37.126Z,99.99
2023-03-01T01:58:37.032Z,99.99
2023-03-01T01:59:37.058Z,99.99
2023-03-01T02:00:37.009Z,99.99
2023-03-01T02:01:37.001Z,99.99
2023-03-01T02:02:37.204Z,99.99
2023-03-01T02:03:37.135Z,99.99
2023-03-01T02:04:37.020Z,99.99
2023-03-01T02:05:36.952Z,99.99
2023-03-01T02:06:36.933Z,99.99
2023-03-01T02:07:36.922Z,99.99
2023-03-01T02:08:37.004Z,99.99
2023-03-01T02:09:36.968Z,99.99
2023-03-01T02:10:36.901Z,99.99
2023-03-01T02:11:36.891Z,99.99
2023-03-01T02:12:36.880Z,99.99
2023-03-01T02:13:36.885Z,99.99
2023-03-01T02:14:36.908Z,99.99
2023-03-01T02:15:36.863Z,99.99
2023-03-01T02:16:36.983Z,99.99
2023-03-01T02:17:36.855Z,99.99
2023-03-01T02:18:36.816Z,99.99
2023-03-01T02:19:36.842Z,99.99
2023-03-01T02:20:36.801Z,99.99
2023-03-01T02:21:36.793Z,99.99
2023-03-01T02:22:36.906Z,99.99
2023-03-01T02:23:36.817Z,99.99
2023-03-01T02:24:36.827Z,99.99
2023-03-01T02:25:36.768Z,99.99
2023-03-01T02:26:36.802Z,99.99
2023-03-01T02:27:36.747Z,99.99
2023-03-01T02:28:36.738Z,99.99
2023-03-01T02:29:36.778Z,99.99
2023-03-01T02:30:36.741Z,99.99
2023-03-01T02:31:36.723Z,99.99
2023-03-01T02:32:36.705Z,99.99
2023-03-01T02:33:36.732Z,99.99
2023-03-01T02:34:36.797Z,99.99
2023-03-01T02:35:36.726Z,99.99
2023-03-01T02:36:36.697Z,99.99
2023-03-01T02:37:36.662Z,99.99
2023-03-01T02:38:36.662Z,99.99
2023-03-01T02:39:36.667Z,99.99
2023-03-01T02:40:36.663Z,99.99
2023-03-01T02:41:36.806Z,99.99
2023-03-01T02:42:36.696Z,99.99
2023-03-01T02:43:36.572Z,99.99
2023-03-01T02:44:36.654Z,99.99
2023-03-01T02:45:36.670Z,99.99
2023-03-01T02:46:36.578Z,99.99
2023-03-01T02:47:36.512Z,99.99
2023-03-01T02:48:36.510Z,99.99
2023-03-01T02:49:36.563Z,99.99
2023-03-01T02:50:36.522Z,99.99
2023-03-01T02:51:36.490Z,99.99
2023-03-01T02:52:36.486Z,99.99
2023-03-01T02:53:36.470Z,99.99
2023-03-01T02:54:36.556Z,99.99
2023-03-01T02:55:36.480Z,99.99
2023-03-01T02:56:36.465Z,99.99
2023-03-01T02:57:36.504Z,99.99
2023-03-01T02:58:36.444Z,99.99
2023-03-01T02:59:36.423Z,99.99
2023-03-01T03:00:36.461Z,99.99
2023-03-01T03:01:36.390Z,99.99
2023-03-01T03:02:36.404Z,99.99
2023-03-01T03:03:36.379Z,99.99
2023-03-01T03:04:36.459Z,99.99
2023-03-01T03:05:36.401Z,99.99
2023-03-01T03:06:36.366Z,99.99
2023-03-01T03:07:36.328Z,99.99
2023-03-01T03:08:36.424Z,99.99
2023-03-01T03:09:36.373Z,99.99
2023-03-01T03:10:36.336Z,99.99
2023-03-01T03:11:36.309Z,99.99
2023-03-01T03:12:36.293Z,99.99
2023-03-01T03:13:36.284Z,99.99
2023-03-01T03:14:36.295Z,99.99
2023-03-01T03:15:36.277Z,99.99
2023-03-01T03:16:36.264Z,99.99
2023-03-01T03:17:36.242Z,99.99
2023-03-01T03:18:36.219Z,99.99
2023-03-01T03:19:36.308Z,99.99
2023-03-01T03:20:36.204Z,99.99
2023-03-01T03:21:36.188Z,99.99
2023-03-01T03:22:36.192Z,99.99
2023-03-01T03:23:36.179Z,99.99
2023-03-01T03:24:36.222Z,99.99
2023-03-01T03:25:36.157Z,99.99
2023-03-01T03:26:36.229Z,99.99
2023-03-01T03:27:36.109Z,99.99
2023-03-01T03:28:36.148Z,99.99
2023-03-01T03:29:36.195Z,99.99
2023-03-01T03:30:36.109Z,99.99
2023-03-01T03:31:36.096Z,99.99
2023-03-01T03:32:36.066Z,99.99
2023-03-01T03:33:36.080Z,99.99
2023-03-01T03:34:36.055Z,99.99
2023-03-01T03:35:36.032Z,99.99
2023-03-01T03:36:36.042Z,99.99
2023-03-01T03:37:36.010Z,99.99
2023-03-01T03:38:36.007Z,99.99
2023-03-01T03:39:36.059Z,99.99
2023-03-01T03:40:35.976Z,99.99
2023-03-01T03:41:35.982Z,99.99
2023-03-01T03:42:35.993Z,99.99
2023-03-01T03:43:35.984Z,99.99
2023-03-01T03:44:35.992Z,99.99
2023-03-01T03:45:36.106Z,99.99
2023-03-01T03:46:36.333Z,99.99
2023-03-01T03:47:35.931Z,99.99
2023-03-01T03:48:35.954Z,99.99
2023-03-01T03:49:35.949Z,99.99
2023-03-01T03:50:35.872Z,99.99
2023-03-01T03:51:35.921Z,99.99
2023-03-01T03:52:35.852Z,99.99
2023-03-01T03:53:35.861Z,99.99
2023-03-01T03:54:35.887Z,99.99
2023-03-01T03:55:35.854Z,99.99
2023-03-01T03:56:35.813Z,99.99
2023-03-01T03:57:35.811Z,99.99
2023-03-01T03:58:35.819Z,99.99
2023-03-01T03:59:35.808Z,99.99
2023-03-01T04:00:35.829Z,99.99
2023-03-01T04:01:35.862Z,99.99
2023-03-01T04:02:35.889Z,99.99
2023-03-01T04:03:35.751Z,99.99
2023-03-01T04:04:35.805Z,99.99
2023-03-01T04:05:35.724Z,99.99
2023-03-01T04:06:35.724Z,99.99
2023-03-01T04:07:35.746Z,99.99
2023-03-01T04:08:35.693Z,99.99
2023-03-01T04:09:35.739Z,99.99
2023-03-01T04:10:35.673Z,99.99
2023-03-01T04:11:35.700Z,99.99
2023-03-01T04:12:35.700Z,99.99
2023-03-01T04:13:35.779Z,99.99
2023-03-01T04:14:35.660Z,99.99
2023-03-01T04:15:35.646Z,99.99
2023-03-01T04:16:35.697Z,99.99
2023-03-01T04:17:35.600Z,99.99
2023-03-01T04:18:35.618Z,99.99
2023-03-01T04:19:35.628Z,99.99
2023-03-01T04:20:35.638Z,99.99
2023-03-01T04:21:35.570Z,99.99
2023-03-01T04:22:35.552Z,99.99
2023-03-01T04:23:35.586Z,99.99
2023-03-01T04:24:35.566Z,99.99
2023-03-01T04:25:35.551Z,99.99
2023-03-01T04:26:35.513Z,99.99
2023-03-01T04:27:35.578Z,99.99
2023-03-01T04:28:35.682Z,99.99
2023-03-01T04:29:35.494Z,99.99
2023-03-01T04:30:35.506Z,99.99
2023-03-01T04:31:35.479Z,99.99
2023-03-01T04:32:35.521Z,99.99
2023-03-01T04:33:35.454Z,99.99
2023-03-01T04:34:35.426Z,99.99
2023-03-01T04:35:35.811Z,99.99
2023-03-01T04:36:35.813Z,99.99
2023-03-01T04:37:35.431Z,99.99
2023-03-01T04:38:35.421Z,99.99
2023-03-01T04:39:35.389Z,99.99
2023-03-01T04:40:35.374Z,99.99
2023-03-01T04:41:35.402Z,99.99
2023-03-01T04:42:35.397Z,99.99
2023-03-01T04:43:35.329Z,99.99
2023-03-01T04:44:35.415Z,99.99
2023-03-01T04:45:35.464Z,99.99
2023-03-01T04:46:35.294Z,99.99
2023-03-01T04:47:35.291Z,99.99
2023-03-01T04:48:35.325Z,99.99
2023-03-01T04:49:35.311Z,99.99
2023-03-01T04:50:35.271Z,99.99
2023-03-01T04:51:35.312Z,99.99
2023-03-01T04:52:35.243Z,99.99
2023-03-01T04:53:35.278Z,99.99
2023-03-01T04:54:35.236Z,99.99
2023-03-01T04:55:35.252Z,99.99
2023-03-01T04:56:35.205Z,99.99
2023-03-01T04:57:35.242Z,99.99
2023-03-01T04:58:35.206Z,99.99
2023-03-01T04:59:35.271Z,99.99
2023-03-01T05:00:35.167Z,99.99
2023-03-01T05:01:35.150Z,99.99
2023-03-01T05:02:35.272Z,99.99
2023-03-01T05:03:35.135Z,99.99
2023-03-01T05:04:35.228Z,99.99
2023-03-01T05:05:35.160Z,99.99
2023-03-01T05:06:35.099Z,99.99
2023-03-01T05:07:35.080Z,99.99
2023-03-01T05:08:35.082Z,99.99
2023-03-01T05:09:35.081Z,99.99
2023-03-01T05:10:35.063Z,99.99
2023-03-01T05:11:35.039Z,99.99
2023-03-01T05:12:35.035Z,99.99
2023-03-01T05:13:35.051Z,99.99
2023-03-01T05:14:35.075Z,99.99
2023-03-01T05:15:35.031Z,99.99
2023-03-01T05:16:36.344Z,99.99
2023-03-01T05:17:34.988Z,99.99
2023-03-01T05:18:35.003Z,99.99
2023-03-01T05:19:34.990Z,99.99
2023-03-01T05:20:34.958Z,99.99
2023-03-01T05:21:34.962Z,99.99
2023-03-01T05:22:34.973Z,99.99
2023-03-01T05:23:34.922Z,99.99
2023-03-01T05:24:34.927Z,99.99
2023-03-01T05:25:34.897Z,99.99
2023-03-01T05:26:34.884Z,99.99
2023-03-01T05:27:34.882Z,99.99
2023-03-01T05:28:34.876Z,99.99
2023-03-01T05:29:34.899Z,99.99
2023-03-01T05:30:34.889Z,99.99
2023-03-01T05:31:34.849Z,99.99
2023-03-01T05:32:34.839Z,99.99
2023-03-01T05:33:34.910Z,99.99
2023-03-01T05:34:34.845Z,99.99
2023-03-01T05:35:34.852Z,99.99
2023-03-01T05:36:34.846Z,99.99
2023-03-01T05:37:34.928Z,99.99
2023-03-01T05:38:34.768Z,99.99
2023-03-01T05:39:34.790Z,99.99
2023-03-01T05:40:34.747Z,99.99
2023-03-01T05:41:34.845Z,99.99
2023-03-01T05:42:34.729Z,99.99
2023-03-01T05:43:34.712Z,99.99
2023-03-01T05:44:34.718Z,99.99
2023-03-01T05:45:34.695Z,99.99
2023-03-01T05:46:34.682Z,99.99
2023-03-01T05:47:34.693Z,99.99
2023-03-01T05:48:34.733Z,99.99
2023-03-01T05:49:34.670Z,99.99
2023-03-01T05:50:34.636Z,99.99
2023-03-01T05:51:34.623Z,99.99
2023-03-01T05:52:34.679Z,99.99
2023-03-01T05:53:34.613Z,99.99
2023-03-01T05:54:34.647Z,99.99
2023-03-01T05:55:34.592Z,99.99
2023-03-01T05:56:34.587Z,99.99
2023-03-01T05:57:34.579Z,99.99
2023-03-01T05:58:34.567Z,99.99
2023-03-01T05:59:34.571Z,99.99
2023-03-01T06:00:34.598Z,99.99
2023-03-01T06:01:34.531Z,99.99
2023-03-01T06:02:34.544Z,99.99
2023-03-01T06:03:34.580Z,99.99
2023-03-01T06:04:34.556Z,99.99
2023-03-01T06:05:34.563Z,99.99
2023-03-01T06:06:34.952Z,99.99
2023-03-01T06:07:34.473Z,99.99
2023-03-01T06:08:34.496Z,99.99
2023-03-01T06:09:34.475Z,99.99
2023-03-01T06:10:34.470Z,99.99
2023-03-01T06:11:34.436Z,99.99
2023-03-01T06:12:34.424Z,99.99
2023-03-01T06:13:34.411Z,99.99
2023-03-01T06:14:34.527Z,99.99
2023-03-01T06:15:34.435Z,99.99
2023-03-01T06:16:34.376Z,99.99
2023-03-01T06:17:34.361Z,99.99
2023-03-01T06:18:34.369Z,99.99
2023-03-01T06:19:34.406Z,99.99
2023-03-01T06:20:34.339Z,99.99
2023-03-01T06:21:34.359Z,99.99
2023-03-01T06:22:34.324Z,99.99
2023-03-01T06:23:34.314Z,99.99
2023-03-01T06:24:34.318Z,99.99
2023-03-01T06:25:34.458Z,99.99
2023-03-01T06:26:34.291Z,99.99
2023-03-01T06:27:34.258Z,99.99
2023-03-01T06:28:34.260Z,99.99
2023-03-01T06:29:34.249Z,99.99
2023-03-01T06:30:34.229Z,99.99
2023-03-01T06:31:34.332Z,99.99
2023-03-01T06:32:34.215Z,99.99
2023-03-01T06:33:34.244Z,99.99
2023-03-01T06:34:34.210Z,99.99
2023-03-01T06:35:34.377Z,99.99
2023-03-01T06:36:34.206Z,99.99
2023-03-01T06:37:34.173Z,99.99
2023-03-01T06:38:34.162Z,99.99
2023-03-01T06:39:34.164Z,99.99
2023-03-01T06:40:34.165Z,99.99
2023-03-01T06:41:34.174Z,99.99
2023-03-01T06:42:34.131Z,99.99
2023-03-01T06:43:34.097Z,99.99
2023-03-01T06:44:34.151Z,99.99
2023-03-01T06:45:34.089Z,99.99
2023-03-01T06:46:34.352Z,99.99
2023-03-01T06:47:34.093Z,99.99
2023-03-01T06:48:34.090Z,99.99
2023-03-01T06:49:34.055Z,99.99
2023-03-01T06:50:34.115Z,99.99
2023-03-01T06:51:34.067Z,99.99
2023-03-01T06:52:34.022Z,99.99
2023-03-01T06:53:34.027Z,99.99
2023-03-01T06:54:34.028Z,99.99
2023-03-01T06:55:33.994Z,99.99
2023-03-01T06:56:34.346Z,99.99
2023-03-01T06:57:34.008Z,99.99
2023-03-01T06:58:34.002Z,99.99
2023-03-01T06:59:33.978Z,99.99
2023-03-01T07:00:33.914Z,99.99
2023-03-01T07:01:33.932Z,99.99
2023-03-01T07:02:33.977Z,99.99
2023-03-01T07:03:33.894Z,99.99
2023-03-01T07:04:33.928Z,99.99
2023-03-01T07:05:33.864Z,99.99
2023-03-01T07:06:33.858Z,99.99
2023-03-01T07:07:33.845Z,99.99
2023-03-01T07:08:33.834Z,99.99
2023-03-01T07:09:33.831Z,99.99
2023-03-01T07:10:33.845Z,99.99
2023-03-01T07:11:33.807Z,99.99
2023-03-01T07:12:33.803Z,99.99
2023-03-01T07:13:33.798Z,99.99
2023-03-01T07:14:33.776Z,99.99
2023-03-01T07:15:33.854Z,99.99
2023-03-01T07:16:34.257Z,99.99
2023-03-01T07:17:33.742Z,99.99
2023-03-01T07:18:33.735Z,99.99
2023-03-01T07:19:33.731Z,99.99
2023-03-01T07:20:33.707Z,99.99
2023-03-01T07:21:33.721Z,99.99
2023-03-01T07:22:33.723Z,99.99
2023-03-01T07:23:33.699Z,99.99
2023-03-01T07:24:33.716Z,99.99
2023-03-01T07:25:33.672Z,99.99
2023-03-01T07:26:33.677Z,99.99
2023-03-01T07:27:33.694Z,99.99
2023-03-01T07:28:33.636Z,99.99
2023-03-01T07:29:33.651Z,99.99
2023-03-01T07:30:33.615Z,99.99
2023-03-01T07:31:33.655Z,99.99
2023-03-01T07:32:33.697Z,99.99
2023-03-01T07:33:33.598Z,99.99
2023-03-01T07:34:33.588Z,99.99
2023-03-01T07:35:33.584Z,99.46
2023-03-01T07:36:33.635Z,99.98
2023-03-01T07:37:33.535Z,99.99
2023-03-01T07:38:33.518Z,99.73
2023-03-01T07:39:33.522Z,99.99
2023-03-01T07:40:33.663Z,99.94
2023-03-01T07:41:33.519Z,99.99
2023-03-01T07:42:33.480Z,99.99
2023-03-01T07:43:33.458Z,99.99
2023-03-01T07:44:33.481Z,99.95
2023-03-01T07:45:33.470Z,99.99
2023-03-01T07:46:33.668Z,99.99
2023-03-01T07:47:33.473Z,99.90
2023-03-01T07:48:33.445Z,98.74
2023-03-01T07:49:33.425Z,98.85
2023-03-01T07:50:33.388Z,99.01
2023-03-01T07:51:33.408Z,98.69
2023-03-01T07:52:33.382Z,98.28
2023-03-01T07:53:33.364Z,97.34
2023-03-01T07:54:33.443Z,96.77
2023-03-01T07:55:33.352Z,96.14
2023-03-01T07:56:33.758Z,96.14
2023-03-01T07:57:33.327Z,96.77
2023-03-01T07:58:33.315Z,96.35
2023-03-01T07:59:33.304Z,95.62
2023-03-01T08:00:33.300Z,96.31
2023-03-01T08:01:33.437Z,96.14
2023-03-01T08:02:33.257Z,96.10
2023-03-01T08:03:33.278Z,95.57
2023-03-01T08:04:33.749Z,94.64
2023-03-01T08:05:33.230Z,95.01
2023-03-01T08:06:33.492Z,95.01
2023-03-01T08:07:33.249Z,95.01
2023-03-01T08:08:33.192Z,94.90
2023-03-01T08:09:33.198Z,94.02
2023-03-01T08:10:33.172Z,94.13
2023-03-01T08:11:33.214Z,93.46
2023-03-01T08:12:33.182Z,93.67
2023-03-01T08:13:33.155Z,93.04
2023-03-01T08:14:33.163Z,92.94
2023-03-01T08:15:33.125Z,92.10
2023-03-01T08:16:33.800Z,91.96
2023-03-01T08:17:33.108Z,92.16
2023-03-01T08:18:33.111Z,92.27
2023-03-01T08:19:33.166Z,91.96
2023-03-01T08:20:33.071Z,93.00
2023-03-01T08:21:33.066Z,92.27
2023-03-01T08:22:33.070Z,91.96
2023-03-01T08:23:33.061Z,91.58
2023-03-01T08:24:33.041Z,91.75
2023-03-01T08:25:33.087Z,92.06
2023-03-01T08:26:33.268Z,91.75
2023-03-01T08:27:32.999Z,90.85
2023-03-01T08:28:32.987Z,90.85
2023-03-01T08:29:32.990Z,91.37
2023-03-01T08:30:32.976Z,91.69
2023-03-01T08:31:33.029Z,91.22
2023-03-01T08:32:33.055Z,91.12
2023-03-01T08:33:32.933Z,91.43
2023-03-01T08:34:32.937Z,90.81
2023-03-01T08:35:32.955Z,92.27
2023-03-01T08:36:33.448Z,93.48
2023-03-01T08:37:32.933Z,92.33
2023-03-01T08:38:32.875Z,92.02
2023-03-01T08:39:32.934Z,91.60
2023-03-01T08:40:32.862Z,91.87
2023-03-01T08:41:32.854Z,91.35
2023-03-01T08:42:32.838Z,91.14
2023-03-01T08:43:32.829Z,91.97
2023-03-01T08:44:32.899Z,92.08
2023-03-01T08:45:32.831Z,92.18
2023-03-01T08:46:33.197Z,92.03
2023-03-01T08:47:32.788Z,91.27
2023-03-01T08:48:32.795Z,89.50
2023-03-01T08:49:32.791Z,89.14
2023-03-01T08:50:32.815Z,88.10
2023-03-01T08:51:32.753Z,88.42
2023-03-01T08:52:32.725Z,88.54
2023-03-01T08:53:32.720Z,87.15
2023-03-01T08:54:32.751Z,87.15
2023-03-01T08:55:32.705Z,86.80
2023-03-01T08:56:32.930Z,85.49
2023-03-01T08:57:32.690Z,87.25
2023-03-01T08:58:32.750Z,85.69
2023-03-01T08:59:32.679Z,86.77
2023-03-01T09:00:32.655Z,87.19
2023-03-01T09:01:32.634Z,87.50
2023-03-01T09:02:32.658Z,87.50
2023-03-01T09:03:32.609Z,87.60
2023-03-01T09:04:32.645Z,86.73
2023-03-01T09:05:32.660Z,87.71
2023-03-01T09:06:32.875Z,86.63
2023-03-01T09:07:32.570Z,86.25
2023-03-01T09:08:32.588Z,85.52
2023-03-01T09:09:32.578Z,87.29
2023-03-01T09:10:32.539Z,89.06
2023-03-01T09:11:32.584Z,87.81
2023-03-01T09:12:32.543Z,87.50
2023-03-01T09:13:32.507Z,87.66
2023-03-01T09:14:32.560Z,86.46
2023-03-01T09:15:32.568Z,86.73
2023-03-01T09:16:32.874Z,87.25
2023-03-01T09:17:32.475Z,87.35
2023-03-01T09:18:32.482Z,86.11
2023-03-01T09:19:32.467Z,86.42
2023-03-01T09:20:32.507Z,87.77
2023-03-01T09:21:40.202Z,87.32
2023-03-01T09:22:33.420Z,85.75
2023-03-01T09:23:32.421Z,85.65
2023-03-01T09:24:32.452Z,85.86
2023-03-01T09:25:32.375Z,85.51
2023-03-01T09:26:32.714Z,85.51
2023-03-01T09:27:32.454Z,84.09
2023-03-01T09:28:32.414Z,84.30
2023-03-01T09:29:32.390Z,84.51
2023-03-01T09:30:32.405Z,84.92
2023-03-01T09:31:32.335Z,85.49
2023-03-01T09:32:32.402Z,85.59
2023-03-01T09:33:32.339Z,85.44
2023-03-01T09:34:32.294Z,85.44
2023-03-01T09:35:32.322Z,85.30
2023-03-01T09:36:32.742Z,86.09
2023-03-01T09:37:32.279Z,84.12
2023-03-01T09:38:32.276Z,84.12
2023-03-01T09:39:32.231Z,83.70
2023-03-01T09:40:32.218Z,84.08
2023-03-01T09:41:32.272Z,84.22
2023-03-01T09:42:32.198Z,84.22
2023-03-01T09:43:32.229Z,85.33
2023-03-01T09:44:32.295Z,84.33
2023-03-01T09:45:32.162Z,85.85
2023-03-01T09:46:32.766Z,85.78
2023-03-01T09:47:32.141Z,83.67
2023-03-01T09:48:32.130Z,84.08
2023-03-01T09:49:32.287Z,84.15
2023-03-01T09:50:32.114Z,83.84
2023-03-01T09:51:32.105Z,83.22
2023-03-01T09:52:32.133Z,81.70
2023-03-01T09:53:32.112Z,83.36
2023-03-01T09:54:32.097Z,83.67
2023-03-01T09:55:32.119Z,83.22
2023-03-01T09:56:32.485Z,83.32
2023-03-01T09:57:32.061Z,83.22
2023-03-01T09:58:32.077Z,82.11
2023-03-01T09:59:32.042Z,83.67
2023-03-01T10:00:32.032Z,85.26
2023-03-01T10:01:32.258Z,85.88
2023-03-01T10:02:32.015Z,84.43
2023-03-01T10:03:32.024Z,85.33
2023-03-01T10:04:32.063Z,85.29
2023-03-01T10:05:31.976Z,82.49
2023-03-01T10:06:35.437Z,83.55
2023-03-01T10:07:31.940Z,83.51
2023-03-01T10:08:32.047Z,81.09
2023-03-01T10:09:31.931Z,79.47
2023-03-01T10:10:31.924Z,80.51
2023-03-01T10:11:31.889Z,81.85
2023-03-01T10:12:31.893Z,81.23
2023-03-01T10:13:31.917Z,80.92
2023-03-01T10:14:31.886Z,80.99
2023-03-01T10:15:31.880Z,80.26
2023-03-01T10:16:31.846Z,80.91
2023-03-01T10:17:31.828Z,80.71
2023-03-01T10:18:31.844Z,79.16
2023-03-01T10:19:31.827Z,80.71
2023-03-01T10:20:31.882Z,78.77
2023-03-01T10:21:32.140Z,77.04
2023-03-01T10:22:31.785Z,74.40
2023-03-01T10:23:31.817Z,75.87
2023-03-01T10:24:31.806Z,76.43
2023-03-01T10:25:31.752Z,76.22
2023-03-01T10:26:32.006Z,76.46
2023-03-01T10:27:31.750Z,77.26
2023-03-01T10:28:31.840Z,77.84
2023-03-01T10:29:31.724Z,77.33
2023-03-01T10:30:31.732Z,77.43
2023-03-01T10:31:31.936Z,76.26
2023-03-01T10:32:32.407Z,76.60
2023-03-01T10:33:31.719Z,76.84
2023-03-01T10:34:31.688Z,76.15
2023-03-01T10:35:31.667Z,75.15
2023-03-01T10:36:32.006Z,74.36
2023-03-01T10:37:31.621Z,74.77
2023-03-01T10:40:52.566Z,75.39
2023-03-01T10:41:52.527Z,73.98
2023-03-01T10:42:52.514Z,75.60
2023-03-01T10:43:53.197Z,75.19
2023-03-01T10:44:53.346Z,74.12
2023-03-01T10:45:52.692Z,71.61
2023-03-01T10:46:52.503Z,70.76
2023-03-01T10:47:52.463Z,71.24
2023-03-01T10:48:52.497Z,71.20
2023-03-01T10:49:52.503Z,68.84
2023-03-01T10:50:52.450Z,70.52
2023-03-01T10:51:52.436Z,71.10
2023-03-01T10:52:52.407Z,70.45
2023-03-01T10:53:52.434Z,69.94
2023-03-01T10:54:52.385Z,70.28
2023-03-01T10:55:52.416Z,66.79
2023-03-01T10:56:52.370Z,68.61
2023-03-01T10:57:52.358Z,69.84
2023-03-01T10:58:52.340Z,65.03
2023-03-01T10:59:52.367Z,65.06
2023-03-01T11:00:52.341Z,65.94
2023-03-01T11:01:52.398Z,68.16
2023-03-01T11:02:52.554Z,66.11
2023-03-01T11:03:52.359Z,66.73
2023-03-01T11:04:52.343Z,65.63
2023-03-01T11:05:52.276Z,65.97
2023-03-01T11:06:52.262Z,67.20
2023-03-01T11:07:52.251Z,67.22
2023-03-01T11:08:52.248Z,70.37
2023-03-01T11:09:52.245Z,71.23
2023-03-01T11:10:52.586Z,74.02
2023-03-01T11:11:52.349Z,75.05
2023-03-01T11:12:52.210Z,72.54
2023-03-01T11:13:52.178Z,72.81
2023-03-01T11:14:52.254Z,73.54
2023-03-01T11:15:52.213Z,74.15
2023-03-01T11:16:52.143Z,74.05
2023-03-01T11:17:56.968Z,75.36
2023-03-01T11:18:53.166Z,76.15
2023-03-01T11:20:02.167Z,73.95
2023-03-01T11:20:53.219Z,71.85
2023-03-01T11:21:52.170Z,72.78
2023-03-01T11:22:52.082Z,71.10
2023-03-01T11:23:52.067Z,70.01
2023-03-01T11:25:03.546Z,70.32
2023-03-01T11:25:53.043Z,67.38
2023-03-01T11:26:52.061Z,67.28
2023-03-01T11:27:52.019Z,67.11
2023-03-01T11:28:52.384Z,65.44
2023-03-01T11:29:52.226Z,65.33
2023-03-01T11:31:06.814Z,65.64
2023-03-01T11:31:57.878Z,64.10
2023-03-01T11:32:53.196Z,66.40
2023-03-01T11:33:52.000Z,66.30
2023-03-01T11:34:51.981Z,64.56
2023-03-01T11:35:51.958Z,64.22
2023-03-01T11:36:51.960Z,65.39
2023-03-01T11:37:52.019Z,62.14
2023-03-01T11:38:51.922Z,63.06
2023-03-01T11:39:51.908Z,64.67
2023-03-01T11:40:54.279Z,64.64
2023-03-01T11:41:51.882Z,61.54
2023-03-01T11:42:51.908Z,61.70
2023-03-01T11:43:51.856Z,63.81
2023-03-01T11:44:51.892Z,62.19
2023-03-01T11:45:51.879Z,63.28
2023-03-01T11:46:52.144Z,65.77
2023-03-01T11:47:51.862Z,66.90
2023-03-01T11:48:51.803Z,66.67
2023-03-01T11:49:51.820Z,65.83
2023-03-01T11:50:51.813Z,67.33
2023-03-01T11:51:51.757Z,69.90
2023-03-01T11:52:51.817Z,68.33
2023-03-01T11:53:51.737Z,69.78
2023-03-01T11:54:51.750Z,66.40
2023-03-01T11:55:51.954Z,64.09
2023-03-01T11:56:51.914Z,65.39
2023-03-01T11:57:51.741Z,63.31
2023-03-01T11:58:51.681Z,63.86
2023-03-01T11:59:51.687Z,64.31
2023-03-01T12:00:51.698Z,60.74
2023-03-01T12:01:51.693Z,59.80
2023-03-01T12:02:51.680Z,61.73
2023-03-01T12:03:52.125Z,59.80
2023-03-01T12:04:51.803Z,60.89
2023-03-01T12:05:51.636Z,61.12
2023-03-01T12:06:51.606Z,58.73
2023-03-01T12:07:51.610Z,61.26
2023-03-01T12:08:51.573Z,61.09
2023-03-01T12:09:51.586Z,61.50
2023-03-01T12:10:51.550Z,64.47
2023-03-01T12:11:51.591Z,60.78
2023-03-01T12:12:51.956Z,59.89
2023-03-01T12:13:51.603Z,59.83
2023-03-01T12:14:51.559Z,62.30
2023-03-01T12:15:51.491Z,62.88
2023-03-01T12:16:51.540Z,61.15
2023-03-01T12:17:51.474Z,59.89
2023-03-01T12:18:51.460Z,62.58
2023-03-01T12:19:51.488Z,61.82
2023-03-01T12:20:51.451Z,60.39
2023-03-01T12:21:51.492Z,60.21
2023-03-01T12:22:52.526Z,60.93
2023-03-01T12:23:51.479Z,60.87
2023-03-01T12:24:51.410Z,59.98
2023-03-01T12:25:51.426Z,60.39
2023-03-01T12:26:51.365Z,62.61
2023-03-01T12:27:51.373Z,61.58
2023-03-01T12:28:51.375Z,60.11
2023-03-01T12:29:51.360Z,60.93
2023-03-01T12:30:51.921Z,61.50
2023-03-01T12:31:53.706Z,62.45
2023-03-01T12:32:51.490Z,63.47
2023-03-01T12:33:51.298Z,60.99
2023-03-01T12:34:51.460Z,59.94
2023-03-01T12:35:51.320Z,60.55
2023-03-01T12:36:51.329Z,60.58
2023-03-01T12:37:51.291Z,60.10
2023-03-01T12:38:51.240Z,62.81
2023-03-01T12:39:51.406Z,61.58
2023-03-01T12:40:51.244Z,62.99
2023-03-01T12:41:51.222Z,61.25
2023-03-01T12:42:51.208Z,64.62
2023-03-01T12:43:51.348Z,64.36
2023-03-01T12:44:51.278Z,60.85
2023-03-01T12:45:51.268Z,61.57
2023-03-01T12:46:51.165Z,63.18
2023-03-01T12:47:51.217Z,62.46
2023-03-01T12:48:51.202Z,61.47
2023-03-01T12:49:51.923Z,63.21
2023-03-01T12:50:51.126Z,61.44
2023-03-01T12:51:51.103Z,62.95
2023-03-01T12:52:51.107Z,60.60
2023-03-01T12:53:51.085Z,60.57
2023-03-01T12:54:51.088Z,60.57